Carimona, Minnesota
Current Conditions -  °F | °C
As of 12:55 AM on Monday 22 Dec 2014 (Local Time) from KFKA Reporting Station
Haze Haze  
Wind Chill: 24°   Ceiling: 400
Heat Index: 34°   Visibility: 2mi
Dew Point: 33°   Wind: 15mph
Humidity: 96%   Direction: 160°SSE
Pressure: 29.78"   Gusts: 20mph
Location:  43.6343°N, 92.1426°W
Report Text: KFKA 220655Z AUTO 16013G17KT 2SM BR OVC004 01/01 A2978 RMK AO2 T00110006
Loading
Personal Weather Stations






























Interactive Weather Map New forecast layout! Learn more

10-Day Weather Forecast

Advertisements
Track Severe Weather on mobile